Time;durP1;ratioP1;P1;durP2;ratioP2;P2;SDS_P1;SDS_P2;PMS_P1;PMS_P2;Temp;Humidity;BMP_temperature;BMP_pressure;BME280_temperature;BME280_humidity;BME280_pressure;Samples;Min_cycle;Max_cycle;Signal;HPM_P1;HPM_P2
2023/09/22 00:01:46;;;;;;;19.27;11.35;;;;;;;;;;5008220;28;20429;-71
2023/09/22 00:04:12;;;;;;;15.88;10.48;;;;;;;;;;5004694;28;20038;-71
2023/09/22 00:06:38;;;;;;;15.60;10.98;;;;;;;;;;5011647;28;20053;-71
2023/09/22 00:09:09;;;;;;;15.60;10.68;;;;;;;;;;5010910;28;20037;-72
2023/09/22 00:11:36;;;;;;;15.75;10.77;;;;;;;;;;5002455;28;20042;-71
2023/09/22 00:14:02;;;;;;;15.20;11.25;;;;;;;;;;5009988;28;20455;-71
2023/09/22 00:16:28;;;;;;;15.85;10.93;;;;;;;;;;5007679;28;20091;-71
2023/09/22 00:18:54;;;;;;;17.95;11.55;;;;;;;;;;5014694;28;20052;-71
2023/09/22 00:21:20;;;;;;;14.73;10.50;;;;;;;;;;5014440;28;20041;-71
2023/09/22 00:23:46;;;;;;;13.90;10.40;;;;;;;;;;5011166;28;20030;-72
2023/09/22 00:26:12;;;;;;;15.73;10.35;;;;;;;;;;5012444;28;20111;-71
2023/09/22 00:28:38;;;;;;;15.48;10.88;;;;;;;;;;4998477;28;20061;-71
2023/09/22 00:31:05;;;;;;;15.65;10.80;;;;;;;;;;5010888;28;20042;-71
2023/09/22 00:33:31;;;;;;;16.02;11.07;;;;;;;;;;5013178;28;20399;-71
2023/09/22 00:36:03;;;;;;;16.33;10.15;;;;;;;;;;5014197;28;20037;-71
2023/09/22 00:38:29;;;;;;;16.13;10.38;;;;;;;;;;5013911;28;20042;-71
2023/09/22 00:40:55;;;;;;;13.25;10.20;;;;;;;;;;5006525;28;20030;-71
2023/09/22 00:43:21;;;;;;;13.32;9.90;;;;;;;;;;5001008;28;20561;-71
2023/09/22 00:45:54;;;;;;;12.50;9.70;;;;;;;;;;5002328;28;20034;-71
2023/09/22 00:48:27;;;;;;;13.13;10.35;;;;;;;;;;5011164;28;20514;-71
2023/09/22 00:50:55;;;;;;;13.07;9.93;;;;;;;;;;5002293;28;20170;-71
2023/09/22 00:53:22;;;;;;;13.80;9.90;;;;;;;;;;5009694;28;20041;-71
2023/09/22 00:55:49;;;;;;;13.63;9.63;;;;;;;;;;5002201;28;20039;-71
2023/09/22 00:58:15;;;;;;;14.95;9.48;;;;;;;;;;5002901;28;20365;-71
2023/09/22 01:00:43;;;;;;;12.25;9.52;;;;;;;;;;5011134;28;20042;-72
2023/09/22 01:03:09;;;;;;;14.38;9.82;;;;;;;;;;5004720;28;20077;-71
2023/09/22 01:05:35;;;;;;;13.60;9.23;;;;;;;;;;5000933;28;20070;-71
2023/09/22 01:08:01;;;;;;;13.43;10.05;;;;;;;;;;5005037;28;20042;-71
2023/09/22 01:10:37;;;;;;;13.35;9.63;;;;;;;;;;5009885;28;20048;-71
2023/09/22 01:13:04;;;;;;;11.60;9.07;;;;;;;;;;5001714;28;20038;-71
2023/09/22 01:15:33;;;;;;;13.23;9.20;;;;;;;;;;5011884;28;20817;-71
2023/09/22 01:17:59;;;;;;;11.93;9.18;;;;;;;;;;5011961;28;20034;-72
2023/09/22 01:20:25;;;;;;;15.65;10.00;;;;;;;;;;5003916;28;20037;-71
2023/09/22 01:22:51;;;;;;;12.55;9.75;;;;;;;;;;5003648;28;20558;-71
2023/09/22 01:25:17;;;;;;;12.52;9.25;;;;;;;;;;5007195;28;20092;-72
2023/09/22 01:27:43;;;;;;;15.57;9.68;;;;;;;;;;5013003;28;20065;-71
2023/09/22 01:30:09;;;;;;;13.68;10.27;;;;;;;;;;5003693;28;20057;-71
2023/09/22 01:32:37;;;;;;;13.30;9.27;;;;;;;;;;5011548;28;20567;-72
2023/09/22 01:35:04;;;;;;;15.13;9.70;;;;;;;;;;5006644;28;20383;-71
2023/09/22 01:37:33;;;;;;;16.00;10.57;;;;;;;;;;4993853;28;20428;-71
2023/09/22 01:39:59;;;;;;;14.95;10.50;;;;;;;;;;5005381;28;20056;-71
2023/09/22 01:42:25;;;;;;;15.27;10.73;;;;;;;;;;4997988;28;20133;-72
2023/09/22 01:44:51;;;;;;;14.10;10.32;;;;;;;;;;5008377;28;20124;-72
2023/09/22 01:47:17;;;;;;;16.90;10.82;;;;;;;;;;5010565;28;20369;-71
2023/09/22 01:49:43;;;;;;;14.98;10.80;;;;;;;;;;4999589;28;20129;-71
2023/09/22 01:52:09;;;;;;;15.63;10.60;;;;;;;;;;5005130;28;20392;-71
2023/09/22 01:54:35;;;;;;;18.13;10.63;;;;;;;;;;5001933;28;20049;-71
2023/09/22 01:57:01;;;;;;;16.85;11.43;;;;;;;;;;5007300;28;20077;-71
2023/09/22 01:59:27;;;;;;;15.40;10.55;;;;;;;;;;5000817;28;20680;-71
2023/09/22 02:01:52;;;;;;;16.83;11.27;;;;;;;;;;5003107;28;20080;-71
2023/09/22 02:04:19;;;;;;;17.95;10.55;;;;;;;;;;5008110;28;20404;-71
2023/09/22 02:06:44;;;;;;;20.58;11.95;;;;;;;;;;4994990;28;20065;-71
2023/09/22 02:09:10;;;;;;;19.65;11.55;;;;;;;;;;5009081;28;20033;-71
2023/09/22 02:11:37;;;;;;;20.42;11.50;;;;;;;;;;5003960;28;20070;-71
2023/09/22 02:14:03;;;;;;;19.40;11.95;;;;;;;;;;5005718;28;20113;-71
2023/09/22 02:16:29;;;;;;;19.45;11.55;;;;;;;;;;5015994;23;20587;-69
2023/09/22 02:18:56;;;;;;;19.25;12.05;;;;;;;;;;4997695;28;20038;-69
2023/09/22 02:21:22;;;;;;;19.60;12.02;;;;;;;;;;4993759;28;20042;-69
2023/09/22 02:23:48;;;;;;;18.42;11.70;;;;;;;;;;4985402;28;20093;-69
2023/09/22 02:26:14;;;;;;;20.23;12.82;;;;;;;;;;4989165;28;20377;-69
2023/09/22 02:28:40;;;;;;;19.02;12.15;;;;;;;;;;4992198;28;20121;-69
2023/09/22 02:31:06;;;;;;;18.92;13.20;;;;;;;;;;4991877;28;20049;-69
2023/09/22 02:33:32;;;;;;;23.45;13.35;;;;;;;;;;4992149;28;20080;-69
2023/09/22 02:35:59;;;;;;;18.65;12.82;;;;;;;;;;4994830;28;20045;-69
2023/09/22 02:38:26;;;;;;;19.30;12.68;;;;;;;;;;4981723;28;20069;-69
2023/09/22 02:40:52;;;;;;;17.92;12.15;;;;;;;;;;4991544;28;20109;-69
2023/09/22 02:43:18;;;;;;;20.33;13.10;;;;;;;;;;4992389;28;20121;-69
2023/09/22 02:45:44;;;;;;;19.88;13.25;;;;;;;;;;4992801;28;20042;-69
2023/09/22 02:48:10;;;;;;;18.85;13.25;;;;;;;;;;4992163;28;20049;-69
2023/09/22 02:50:37;;;;;;;20.30;13.73;;;;;;;;;;4991788;28;20089;-69
2023/09/22 02:53:03;;;;;;;21.65;14.50;;;;;;;;;;4992578;28;20046;-69
2023/09/22 02:55:30;;;;;;;20.38;13.63;;;;;;;;;;4992252;28;20396;-69
2023/09/22 02:57:56;;;;;;;20.58;13.63;;;;;;;;;;4992038;28;20384;-69
2023/09/22 03:00:22;;;;;;;22.38;14.27;;;;;;;;;;4992172;28;20038;-69
2023/09/22 03:02:48;;;;;;;21.38;13.63;;;;;;;;;;4991722;28;20058;-69
2023/09/22 03:05:16;;;;;;;20.90;13.63;;;;;;;;;;4991427;28;20464;-69
2023/09/22 03:07:42;;;;;;;22.20;14.15;;;;;;;;;;4990709;28;20061;-69
2023/09/22 03:10:10;;;;;;;19.85;14.15;;;;;;;;;;4992584;28;20038;-69
2023/09/22 03:12:36;;;;;;;24.17;14.90;;;;;;;;;;4990529;28;20054;-69
2023/09/22 03:15:03;;;;;;;24.13;15.20;;;;;;;;;;4993279;28;20039;-69
2023/09/22 03:17:29;;;;;;;22.90;13.88;;;;;;;;;;4972074;28;20054;-69
2023/09/22 03:19:59;;;;;;;20.40;12.40;;;;;;;;;;4978465;28;20042;-69
2023/09/22 03:22:28;;;;;;;21.13;12.93;;;;;;;;;;4991207;28;20046;-69
2023/09/22 03:24:54;;;;;;;20.70;11.68;;;;;;;;;;4992026;28;20113;-69
2023/09/22 03:27:20;;;;;;;18.08;10.60;;;;;;;;;;4991596;28;20038;-69
2023/09/22 03:29:46;;;;;;;16.67;10.65;;;;;;;;;;4992425;28;20038;-69
2023/09/22 03:32:14;;;;;;;15.90;9.98;;;;;;;;;;4991250;28;20586;-69
2023/09/22 03:34:40;;;;;;;17.33;10.73;;;;;;;;;;4993795;28;20053;-69
2023/09/22 03:37:09;;;;;;;14.43;10.00;;;;;;;;;;4995829;28;20109;-69
2023/09/22 03:39:35;;;;;;;15.25;9.82;;;;;;;;;;4995189;28;20050;-69
2023/09/22 03:42:01;;;;;;;14.27;9.63;;;;;;;;;;4996138;28;20046;-69
2023/09/22 03:44:28;;;;;;;16.75;10.27;;;;;;;;;;4993687;28;20050;-69
2023/09/22 03:46:53;;;;;;;16.65;10.80;;;;;;;;;;4994942;28;20073;-69
2023/09/22 03:49:19;;;;;;;16.67;9.95;;;;;;;;;;4994532;28;20042;-69
2023/09/22 03:51:45;;;;;;;17.50;10.20;;;;;;;;;;4995600;28;20042;-69
2023/09/22 03:54:11;;;;;;;17.10;10.23;;;;;;;;;;4997864;28;20042;-69
2023/09/22 03:56:38;;;;;;;18.38;10.57;;;;;;;;;;4989514;28;20159;-69
2023/09/22 03:59:05;;;;;;;15.77;10.88;;;;;;;;;;4994586;28;20037;-69
2023/09/22 04:01:32;;;;;;;19.08;11.25;;;;;;;;;;4991410;28;20065;-69
2023/09/22 04:03:58;;;;;;;19.20;11.90;;;;;;;;;;4987329;28;20559;-69
2023/09/22 04:06:24;;;;;;;20.58;13.35;;;;;;;;;;4979771;28;20485;-69
2023/09/22 04:08:51;;;;;;;21.40;12.95;;;;;;;;;;4993278;28;20057;-69
2023/09/22 04:11:17;;;;;;;22.35;12.82;;;;;;;;;;4995011;28;20045;-69
2023/09/22 04:13:44;;;;;;;27.40;14.35;;;;;;;;;;4994311;28;20034;-69
2023/09/22 04:16:10;;;;;;;26.15;14.80;;;;;;;;;;4994978;28;20042;-69
2023/09/22 04:18:36;;;;;;;24.48;14.40;;;;;;;;;;4994443;28;20049;-69
2023/09/22 04:21:04;;;;;;;25.45;14.13;;;;;;;;;;4989471;28;20043;-69
2023/09/22 04:23:31;;;;;;;26.15;14.93;;;;;;;;;;4996446;28;20038;-69
2023/09/22 04:26:02;;;;;;;27.88;16.65;;;;;;;;;;4994787;28;20042;-69
2023/09/22 04:28:28;;;;;;;26.52;15.93;;;;;;;;;;4994255;28;20050;-69
2023/09/22 04:30:55;;;;;;;29.10;16.88;;;;;;;;;;4994736;28;20121;-69
2023/09/22 04:33:21;;;;;;;27.55;15.85;;;;;;;;;;4993319;28;20064;-69
2023/09/22 04:35:50;;;;;;;28.38;15.55;;;;;;;;;;4995191;28;20436;-69
2023/09/22 04:38:18;;;;;;;28.05;15.77;;;;;;;;;;4993522;28;20042;-68
2023/09/22 04:40:44;;;;;;;26.83;16.10;;;;;;;;;;4992249;28;20445;-68
2023/09/22 04:43:13;;;;;;;30.50;16.50;;;;;;;;;;4993091;28;20108;-68
2023/09/22 04:45:40;;;;;;;25.17;15.75;;;;;;;;;;4991800;28;20088;-68
2023/09/22 04:48:06;;;;;;;27.25;16.95;;;;;;;;;;4990803;28;20038;-68
2023/09/22 04:50:32;;;;;;;27.63;17.65;;;;;;;;;;4993166;28;20038;-68
2023/09/22 04:52:58;;;;;;;29.25;18.17;;;;;;;;;;4988228;28;20057;-68
2023/09/22 04:55:25;;;;;;;28.65;17.10;;;;;;;;;;4985296;28;20038;-68
2023/09/22 04:57:51;;;;;;;30.80;18.85;;;;;;;;;;4982118;28;20407;-68
2023/09/22 05:00:21;;;;;;;28.85;17.40;;;;;;;;;;4989329;28;20409;-68
2023/09/22 05:02:47;;;;;;;31.58;19.65;;;;;;;;;;4989694;28;20093;-68
2023/09/22 05:05:16;;;;;;;28.90;18.17;;;;;;;;;;4978882;28;20436;-68
2023/09/22 05:07:42;;;;;;;30.58;19.25;;;;;;;;;;4977519;28;20557;-68
2023/09/22 05:10:09;;;;;;;28.58;17.85;;;;;;;;;;4992753;28;20042;-68
2023/09/22 05:12:35;;;;;;;33.90;19.17;;;;;;;;;;4991029;28;20504;-68
2023/09/22 05:15:02;;;;;;;33.38;19.65;;;;;;;;;;4975728;28;20481;-68
2023/09/22 05:17:28;;;;;;;31.48;18.75;;;;;;;;;;4988180;28;20519;-68
2023/09/22 05:19:54;;;;;;;34.45;18.77;;;;;;;;;;4980544;28;20038;-68
2023/09/22 05:22:23;;;;;;;31.23;19.27;;;;;;;;;;4976345;28;20058;-68
2023/09/22 05:24:49;;;;;;;31.83;18.65;;;;;;;;;;4985979;28;20121;-68
2023/09/22 05:27:15;;;;;;;29.50;17.25;;;;;;;;;;4983790;28;20038;-68
2023/09/22 05:29:41;;;;;;;33.40;19.25;;;;;;;;;;4984711;28;20177;-68
2023/09/22 05:32:08;;;;;;;29.92;18.42;;;;;;;;;;4988739;28;20049;-68
2023/09/22 05:34:34;;;;;;;32.25;18.17;;;;;;;;;;4985910;28;20542;-68
2023/09/22 05:37:00;;;;;;;34.90;19.33;;;;;;;;;;4991644;28;20489;-68
2023/09/22 05:39:26;;;;;;;31.92;18.85;;;;;;;;;;4976893;28;20038;-68
2023/09/22 05:41:53;;;;;;;31.35;18.73;;;;;;;;;;4985656;28;20030;-68
2023/09/22 05:44:19;;;;;;;28.50;17.27;;;;;;;;;;4992870;28;20488;-68
2023/09/22 05:46:45;;;;;;;26.88;15.93;;;;;;;;;;4989110;28;20042;-69
2023/09/22 05:49:15;;;;;;;30.50;17.38;;;;;;;;;;4987506;28;20042;-68
2023/09/22 05:51:41;;;;;;;29.05;17.40;;;;;;;;;;4983699;28;20552;-68
2023/09/22 05:54:08;;;;;;;29.70;16.23;;;;;;;;;;4992328;28;20035;-69
2023/09/22 05:56:35;;;;;;;31.70;15.93;;;;;;;;;;4991924;28;20507;-69
2023/09/22 05:59:03;;;;;;;25.02;15.32;;;;;;;;;;4991495;28;20053;-69
2023/09/22 06:01:30;;;;;;;24.58;15.05;;;;;;;;;;4989711;28;20080;-69
2023/09/22 06:03:57;;;;;;;28.38;16.00;;;;;;;;;;4991991;28;20053;-69
2023/09/22 06:06:23;;;;;;;23.40;13.55;;;;;;;;;;4987054;28;20523;-69
2023/09/22 06:08:50;;;;;;;25.23;13.18;;;;;;;;;;4980866;28;20050;-69
2023/09/22 06:11:17;;;;;;;24.67;12.80;;;;;;;;;;4984943;28;20053;-69
2023/09/22 06:13:43;;;;;;;24.50;13.57;;;;;;;;;;4990645;28;20042;-69
2023/09/22 06:16:09;;;;;;;23.35;12.43;;;;;;;;;;4982792;28;20042;-69
2023/09/22 06:18:37;;;;;;;26.52;12.95;;;;;;;;;;4977789;28;20571;-69
2023/09/22 06:21:05;;;;;;;20.20;12.43;;;;;;;;;;4982585;28;20041;-69
2023/09/22 06:23:31;;;;;;;22.75;12.63;;;;;;;;;;4983643;28;20043;-69
2023/09/22 06:26:01;;;;;;;22.15;11.52;;;;;;;;;;4977244;28;20046;-69
2023/09/22 06:28:27;;;;;;;22.27;12.35;;;;;;;;;;4989411;28;20105;-69
2023/09/22 06:30:53;;;;;;;21.52;12.15;;;;;;;;;;4990623;28;20069;-69
2023/09/22 06:33:19;;;;;;;20.02;11.18;;;;;;;;;;4987295;28;20039;-69
2023/09/22 06:35:46;;;;;;;21.83;11.05;;;;;;;;;;4985399;28;20071;-69
2023/09/22 06:38:12;;;;;;;20.05;10.30;;;;;;;;;;4978987;28;20046;-68
2023/09/22 06:40:38;;;;;;;20.23;10.63;;;;;;;;;;4990755;28;20053;-68
2023/09/22 06:43:04;;;;;;;19.48;10.57;;;;;;;;;;4991277;28;20507;-69
2023/09/22 06:45:35;;;;;;;19.02;10.57;;;;;;;;;;4982392;28;20039;-68
2023/09/22 06:48:05;;;;;;;21.17;10.55;;;;;;;;;;4985851;28;20044;-68
2023/09/22 06:50:37;;;;;;;19.40;10.57;;;;;;;;;;4990003;28;20052;-68
2023/09/22 06:53:03;;;;;;;21.20;10.77;;;;;;;;;;4987332;28;20050;-69
2023/09/22 06:55:33;;;;;;;20.13;10.73;;;;;;;;;;4991250;28;20038;-68
2023/09/22 06:57:59;;;;;;;21.70;11.65;;;;;;;;;;4992230;28;20034;-69
2023/09/22 07:00:28;;;;;;;18.58;9.90;;;;;;;;;;4991639;28;20113;-69
2023/09/22 07:02:54;;;;;;;17.90;10.32;;;;;;;;;;4989429;28;20058;-68
2023/09/22 07:05:21;;;;;;;18.42;9.88;;;;;;;;;;4984862;28;20038;-69
2023/09/22 07:07:47;;;;;;;18.30;10.18;;;;;;;;;;4991753;28;20651;-69
2023/09/22 07:10:13;;;;;;;17.67;9.98;;;;;;;;;;4992304;28;20042;-69
2023/09/22 07:12:39;;;;;;;17.02;9.82;;;;;;;;;;4994572;28;20038;-69
2023/09/22 07:15:06;;;;;;;18.02;9.35;;;;;;;;;;4993262;28;20476;-69
2023/09/22 07:17:32;;;;;;;20.13;10.15;;;;;;;;;;4991735;28;20034;-69
2023/09/22 07:19:58;;;;;;;17.15;9.95;;;;;;;;;;4990504;28;20070;-69
2023/09/22 07:22:24;;;;;;;16.52;10.18;;;;;;;;;;4988850;28;20424;-69
2023/09/22 07:24:53;;;;;;;18.27;9.80;;;;;;;;;;4981144;28;20053;-69
2023/09/22 07:27:19;;;;;;;16.25;9.63;;;;;;;;;;4993911;28;20437;-69
2023/09/22 07:29:50;;;;;;;16.25;9.55;;;;;;;;;;4995635;28;20492;-69
2023/09/22 07:32:16;;;;;;;13.57;9.03;;;;;;;;;;4993117;28;20050;-69
2023/09/22 07:34:42;;;;;;;17.02;9.27;;;;;;;;;;4976939;28;20290;-69
2023/09/22 07:37:11;;;;;;;17.30;9.10;;;;;;;;;;4976428;28;20039;-69
2023/09/22 07:39:37;;;;;;;15.63;9.00;;;;;;;;;;4976377;28;20066;-69
2023/09/22 07:42:04;;;;;;;16.77;8.50;;;;;;;;;;4975940;28;20118;-69
2023/09/22 07:44:30;;;;;;;15.45;8.70;;;;;;;;;;4975910;28;20031;-69
2023/09/22 07:46:58;;;;;;;17.38;9.50;;;;;;;;;;4976187;28;20119;-69
2023/09/22 07:49:25;;;;;;;14.75;8.25;;;;;;;;;;4975421;28;20039;-69
2023/09/22 07:51:51;;;;;;;17.05;9.10;;;;;;;;;;4987646;28;20046;-69
2023/09/22 07:54:18;;;;;;;15.55;8.68;;;;;;;;;;4995721;28;20035;-69
2023/09/22 07:56:46;;;;;;;15.30;8.73;;;;;;;;;;4988598;28;20096;-69
2023/09/22 07:59:14;;;;;;;12.48;8.10;;;;;;;;;;4995154;28;20502;-69
2023/09/22 08:01:42;;;;;;;14.27;7.65;;;;;;;;;;4993736;28;20046;-69
2023/09/22 08:04:08;;;;;;;10.93;7.28;;;;;;;;;;4995462;28;20046;-69
2023/09/22 08:06:34;;;;;;;12.18;7.80;;;;;;;;;;4994322;28;20674;-69
2023/09/22 08:09:01;;;;;;;10.88;5.97;;;;;;;;;;4995649;28;20038;-69
2023/09/22 08:11:27;;;;;;;10.25;5.93;;;;;;;;;;4994892;28;20042;-69
2023/09/22 08:13:53;;;;;;;9.88;5.85;;;;;;;;;;4995472;28;20042;-69
2023/09/22 08:16:19;;;;;;;12.25;5.60;;;;;;;;;;5011052;23;20447;-71
2023/09/22 08:18:45;;;;;;;8.57;4.97;;;;;;;;;;5006968;28;20064;-71
2023/09/22 08:21:11;;;;;;;7.95;4.63;;;;;;;;;;5014150;28;20116;-71
2023/09/22 08:23:37;;;;;;;9.70;4.43;;;;;;;;;;5014070;28;20041;-71
2023/09/22 08:26:05;;;;;;;8.20;4.63;;;;;;;;;;5014181;28;20038;-71
2023/09/22 08:28:32;;;;;;;7.35;4.47;;;;;;;;;;5014412;28;20092;-71
2023/09/22 08:30:58;;;;;;;7.85;4.20;;;;;;;;;;5014367;28;20083;-71
2023/09/22 08:33:24;;;;;;;8.50;4.38;;;;;;;;;;5014459;28;20073;-71
2023/09/22 08:35:51;;;;;;;7.57;4.80;;;;;;;;;;5013990;28;20074;-71
2023/09/22 08:38:17;;;;;;;5.93;3.78;;;;;;;;;;5014262;28;20046;-71
2023/09/22 08:40:46;;;;;;;7.05;3.80;;;;;;;;;;5013391;28;20496;-72
2023/09/22 08:43:12;;;;;;;7.22;3.97;;;;;;;;;;5014621;28;20073;-72
2023/09/22 08:45:39;;;;;;;4.75;3.45;;;;;;;;;;5014306;28;20038;-72
2023/09/22 08:48:05;;;;;;;5.53;3.03;;;;;;;;;;5013575;28;20045;-72
2023/09/22 08:50:31;;;;;;;3.40;2.20;;;;;;;;;;5013797;28;20136;-72
2023/09/22 08:52:57;;;;;;;4.60;2.58;;;;;;;;;;5012702;28;20060;-72
2023/09/22 08:55:23;;;;;;;5.82;2.45;;;;;;;;;;5013650;28;20455;-72
2023/09/22 08:57:51;;;;;;;4.47;2.10;;;;;;;;;;5013712;28;20562;-72
2023/09/22 09:00:26;;;;;;;4.45;2.50;;;;;;;;;;5013778;28;20109;-72
2023/09/22 09:02:54;;;;;;;3.03;2.20;;;;;;;;;;5014169;28;20042;-72
2023/09/22 09:05:31;;;;;;;3.53;2.10;;;;;;;;;;5013344;28;20050;-72
2023/09/22 09:08:10;;;;;;;4.35;2.15;;;;;;;;;;5012303;28;20088;-72
2023/09/22 09:10:36;;;;;;;3.25;1.95;;;;;;;;;;5013754;28;20506;-72
2023/09/22 09:13:03;;;;;;;4.20;1.90;;;;;;;;;;5013267;28;20042;-72
2023/09/22 09:15:42;;;;;;;4.28;2.38;;;;;;;;;;5011822;28;20054;-72
2023/09/22 09:18:11;;;;;;;4.07;2.13;;;;;;;;;;5013471;28;20117;-72
2023/09/22 09:20:40;;;;;;;7.97;2.20;;;;;;;;;;5013212;28;20049;-72
2023/09/22 09:23:19;;;;;;;5.10;2.20;;;;;;;;;;5013791;28;20122;-72
2023/09/22 09:25:46;;;;;;;4.75;2.40;;;;;;;;;;5011621;28;20053;-72
2023/09/22 09:28:13;;;;;;;4.07;2.00;;;;;;;;;;5011960;28;20048;-72
2023/09/22 09:30:51;;;;;;;3.10;2.03;;;;;;;;;;5011753;28;20053;-72
2023/09/22 09:33:17;;;;;;;4.70;1.90;;;;;;;;;;5011931;28;20365;-72
2023/09/22 09:35:43;;;;;;;1.88;1.70;;;;;;;;;;5013354;28;20121;-72
2023/09/22 09:38:09;;;;;;;2.70;1.83;;;;;;;;;;5012734;28;20112;-72
2023/09/22 09:40:39;;;;;;;5.50;1.98;;;;;;;;;;5013162;28;20048;-72
2023/09/22 09:43:12;;;;;;;3.83;1.80;;;;;;;;;;5012994;28;20411;-72
2023/09/22 09:45:57;;;;;;;5.13;1.77;;;;;;;;;;5012536;28;20508;-72
2023/09/22 09:48:24;;;;;;;2.70;1.48;;;;;;;;;;5013220;28;20029;-72
2023/09/22 09:50:52;;;;;;;2.25;1.35;;;;;;;;;;5012956;28;20121;-72
2023/09/22 09:53:26;;;;;;;3.08;1.38;;;;;;;;;;5013017;28;20038;-72
2023/09/22 09:55:56;;;;;;;3.17;1.20;;;;;;;;;;5012527;28;20057;-72
2023/09/22 09:58:24;;;;;;;2.87;1.17;;;;;;;;;;5011630;28;20454;-71
2023/09/22 10:00:50;;;;;;;4.07;1.10;;;;;;;;;;5013041;28;20285;-71
2023/09/22 10:03:18;;;;;;;4.60;1.23;;;;;;;;;;5012305;28;20096;-71
2023/09/22 10:05:44;;;;;;;1.73;0.90;;;;;;;;;;5011264;28;20041;-71
2023/09/22 10:08:12;;;;;;;2.05;1.10;;;;;;;;;;5012207;28;20056;-71
2023/09/22 10:10:38;;;;;;;2.45;1.33;;;;;;;;;;5012993;28;20562;-71
2023/09/22 10:13:05;;;;;;;3.15;1.23;;;;;;;;;;5012517;28;20041;-71
2023/09/22 10:15:50;;;;;;;4.40;1.35;;;;;;;;;;5012563;28;20042;-71
2023/09/22 10:18:17;;;;;;;2.03;0.88;;;;;;;;;;5012254;28;20040;-71
2023/09/22 10:20:46;;;;;;;3.30;1.10;;;;;;;;;;5011748;28;20060;-71
2023/09/22 10:23:19;;;;;;;1.33;0.90;;;;;;;;;;5010981;28;20575;-71
2023/09/22 10:26:11;;;;;;;1.77;0.95;;;;;;;;;;5012333;28;20045;-71
2023/09/22 10:28:38;;;;;;;1.88;0.90;;;;;;;;;;5011573;28;20049;-71
2023/09/22 10:31:04;;;;;;;1.92;0.90;;;;;;;;;;5012298;28;20051;-71
2023/09/22 10:33:32;;;;;;;1.85;0.88;;;;;;;;;;5012268;28;20147;-71
2023/09/22 10:35:58;;;;;;;2.30;1.00;;;;;;;;;;5011640;28;20038;-71
2023/09/22 10:38:25;;;;;;;1.42;0.88;;;;;;;;;;5012263;28;20033;-71
2023/09/22 10:41:00;;;;;;;2.50;1.17;;;;;;;;;;5012351;28;20759;-71
2023/09/22 10:43:26;;;;;;;5.93;1.15;;;;;;;;;;5012055;28;20164;-71
2023/09/22 10:45:52;;;;;;;1.88;1.00;;;;;;;;;;5012030;28;20053;-71
2023/09/22 10:48:19;;;;;;;4.22;1.20;;;;;;;;;;5011933;28;20044;-71
2023/09/22 10:50:52;;;;;;;2.13;1.30;;;;;;;;;;5012290;28;20085;-71
2023/09/22 10:53:18;;;;;;;2.55;0.85;;;;;;;;;;5011786;28;20480;-71
2023/09/22 10:55:45;;;;;;;1.80;0.80;;;;;;;;;;5012412;28;20033;-71
2023/09/22 10:58:12;;;;;;;2.22;1.15;;;;;;;;;;5011463;28;20037;-71
2023/09/22 11:00:40;;;;;;;2.53;0.88;;;;;;;;;;5011882;28;20088;-71
2023/09/22 11:03:10;;;;;;;1.85;0.88;;;;;;;;;;5010677;28;20399;-71
2023/09/22 11:05:41;;;;;;;2.80;1.05;;;;;;;;;;5010986;28;20046;-71
2023/09/22 11:08:12;;;;;;;1.23;0.70;;;;;;;;;;5011957;28;20077;-71
2023/09/22 11:10:38;;;;;;;;;;;;;;;;;;5011463;28;20049;-72
2023/09/22 11:13:04;;;;;;;2.90;0.70;;;;;;;;;;5010312;28;19921;-72
2023/09/22 11:15:31;;;;;;;0.80;0.57;;;;;;;;;;5012033;28;20044;-72
2023/09/22 11:17:57;;;;;;;1.45;0.50;;;;;;;;;;5011190;28;20426;-72
2023/09/22 11:20:28;;;;;;;0.88;0.60;;;;;;;;;;5012115;28;20121;-72
2023/09/22 11:22:55;;;;;;;1.52;0.60;;;;;;;;;;5011573;28;20042;-72
2023/09/22 11:25:22;;;;;;;4.65;1.00;;;;;;;;;;5011305;28;20041;-72
2023/09/22 11:27:48;;;;;;;2.25;0.75;;;;;;;;;;5011252;28;20052;-72
2023/09/22 11:30:16;;;;;;;1.92;1.13;;;;;;;;;;5012085;28;20034;-72
2023/09/22 11:32:43;;;;;;;2.30;0.77;;;;;;;;;;5011738;28;20129;-72
2023/09/22 11:35:10;;;;;;;2.10;0.80;;;;;;;;;;5010248;28;20045;-72
2023/09/22 11:37:37;;;;;;;2.90;0.90;;;;;;;;;;5011029;28;20117;-72
2023/09/22 11:40:16;;;;;;;1.60;0.60;;;;;;;;;;5012127;28;20076;-72
2023/09/22 11:42:46;;;;;;;1.08;0.70;;;;;;;;;;5011340;28;20037;-72
2023/09/22 11:45:19;;;;;;;2.35;0.80;;;;;;;;;;5012058;28;20038;-72
2023/09/22 11:47:45;;;;;;;1.20;0.68;;;;;;;;;;5011005;28;20042;-71
2023/09/22 11:50:20;;;;;;;1.48;0.60;;;;;;;;;;5011275;28;20095;-72
2023/09/22 11:52:47;;;;;;;1.42;0.80;;;;;;;;;;5011415;28;20042;-72
2023/09/22 11:55:13;;;;;;;2.70;0.93;;;;;;;;;;5013612;28;20116;-72
2023/09/22 11:57:39;;;;;;;1.42;0.77;;;;;;;;;;5014815;28;20073;-72
2023/09/22 12:00:08;;;;;;;1.65;0.68;;;;;;;;;;5014526;28;20042;-72
2023/09/22 12:02:34;;;;;;;1.25;0.70;;;;;;;;;;5014654;28;20041;-72
2023/09/22 12:05:00;;;;;;;1.05;0.70;;;;;;;;;;5015427;28;20079;-72
2023/09/22 12:07:26;;;;;;;3.08;0.90;;;;;;;;;;5014414;28;20045;-72
2023/09/22 12:09:52;;;;;;;1.23;0.70;;;;;;;;;;5013588;28;20045;-72
2023/09/22 12:12:19;;;;;;;1.85;0.73;;;;;;;;;;5014795;28;20077;-72
2023/09/22 12:14:45;;;;;;;1.35;0.77;;;;;;;;;;5014757;28;20415;-72
2023/09/22 12:17:11;;;;;;;1.25;0.70;;;;;;;;;;5013720;28;20037;-71
2023/09/22 12:19:37;;;;;;;1.90;0.60;;;;;;;;;;5014815;28;20403;-71
2023/09/22 12:22:03;;;;;;;4.43;0.70;;;;;;;;;;5015005;28;20042;-71
2023/09/22 12:24:29;;;;;;;2.42;0.60;;;;;;;;;;5014684;28;20080;-71
2023/09/22 12:26:55;;;;;;;1.77;0.70;;;;;;;;;;5014256;28;20092;-71
2023/09/22 12:29:21;;;;;;;2.85;0.45;;;;;;;;;;5014393;28;20030;-71
2023/09/22 12:31:47;;;;;;;1.70;0.60;;;;;;;;;;5014359;28;20042;-71
2023/09/22 12:34:13;;;;;;;1.95;0.60;;;;;;;;;;5013913;28;20087;-71
2023/09/22 12:36:39;;;;;;;1.58;0.52;;;;;;;;;;5014294;28;20042;-71
2023/09/22 12:39:05;;;;;;;1.45;0.63;;;;;;;;;;5014219;28;20128;-71
2023/09/22 12:41:31;;;;;;;1.65;0.65;;;;;;;;;;5014539;28;20084;-71
2023/09/22 12:43:57;;;;;;;1.13;0.47;;;;;;;;;;5013571;28;20049;-71
2023/09/22 12:46:23;;;;;;;2.22;0.77;;;;;;;;;;5013916;28;20049;-71
2023/09/22 12:48:49;;;;;;;1.65;0.80;;;;;;;;;;5013790;28;20044;-71
2023/09/22 12:51:15;;;;;;;1.50;0.60;;;;;;;;;;5013084;28;20484;-71
2023/09/22 12:53:41;;;;;;;1.75;0.68;;;;;;;;;;5012589;28;20056;-71
2023/09/22 12:56:07;;;;;;;2.35;0.80;;;;;;;;;;5014151;28;20534;-71
2023/09/22 12:58:34;;;;;;;2.70;0.82;;;;;;;;;;5013348;28;20080;-71
2023/09/22 13:01:04;;;;;;;1.42;0.65;;;;;;;;;;5014339;28;20038;-71
2023/09/22 13:03:31;;;;;;;1.13;0.73;;;;;;;;;;5013739;28;20049;-71
2023/09/22 13:06:00;;;;;;;1.10;0.70;;;;;;;;;;5013233;28;20288;-71
2023/09/22 13:08:27;;;;;;;1.60;0.70;;;;;;;;;;5013341;28;20041;-71
2023/09/22 13:10:53;;;;;;;0.85;0.70;;;;;;;;;;5013861;28;20057;-71
2023/09/22 13:13:19;;;;;;;1.63;0.70;;;;;;;;;;5013579;28;20417;-71
2023/09/22 13:15:46;;;;;;;0.82;0.60;;;;;;;;;;5013469;28;20038;-71
2023/09/22 13:18:13;;;;;;;1.30;0.77;;;;;;;;;;5013283;28;20062;-71
2023/09/22 13:20:40;;;;;;;1.48;0.80;;;;;;;;;;5013783;28;20050;-71
2023/09/22 13:23:06;;;;;;;1.58;0.82;;;;;;;;;;5012671;28;20113;-71
2023/09/22 13:25:39;;;;;;;1.70;0.60;;;;;;;;;;5013614;28;20073;-71
2023/09/22 13:28:08;;;;;;;3.17;0.77;;;;;;;;;;5013130;28;20050;-71
2023/09/22 13:30:38;;;;;;;0.93;0.80;;;;;;;;;;5013269;28;20091;-71
2023/09/22 13:33:04;;;;;;;1.88;0.80;;;;;;;;;;5013371;28;20038;-71
2023/09/22 13:35:31;;;;;;;1.05;0.98;;;;;;;;;;5013320;28;20125;-71
2023/09/22 13:37:57;;;;;;;1.08;0.70;;;;;;;;;;5013097;28;20048;-71
2023/09/22 13:40:23;;;;;;;1.70;0.70;;;;;;;;;;5012996;28;20033;-71
2023/09/22 13:42:49;;;;;;;1.65;0.80;;;;;;;;;;5013161;28;20704;-71
2023/09/22 13:45:17;;;;;;;1.63;1.00;;;;;;;;;;5013025;28;20104;-71
2023/09/22 13:47:43;;;;;;;2.42;0.90;;;;;;;;;;5012703;28;20045;-71
2023/09/22 13:50:09;;;;;;;1.48;0.73;;;;;;;;;;5013189;28;20073;-71
2023/09/22 13:52:36;;;;;;;1.33;1.08;;;;;;;;;;5011911;28;20041;-71
2023/09/22 13:55:04;;;;;;;2.55;1.20;;;;;;;;;;5012605;28;20492;-71
2023/09/22 13:57:30;;;;;;;2.45;1.00;;;;;;;;;;5004064;28;20042;-71
2023/09/22 13:59:56;;;;;;;2.35;1.10;;;;;;;;;;5012829;28;20072;-71
2023/09/22 14:02:22;;;;;;;1.23;0.93;;;;;;;;;;5013164;28;20092;-71
2023/09/22 14:04:48;;;;;;;1.33;0.90;;;;;;;;;;5012440;28;20042;-71
2023/09/22 14:07:14;;;;;;;2.05;1.00;;;;;;;;;;5012515;28;20391;-71
2023/09/22 14:09:40;;;;;;;2.13;1.20;;;;;;;;;;5012298;28;20037;-71
2023/09/22 14:12:06;;;;;;;1.85;0.88;;;;;;;;;;5012027;28;20476;-71
2023/09/22 14:14:32;;;;;;;1.95;1.00;;;;;;;;;;5011332;28;20041;-71
2023/09/22 14:16:59;;;;;;;1.88;0.93;;;;;;;;;;5010289;28;20050;-71
2023/09/22 14:19:25;;;;;;;2.20;0.95;;;;;;;;;;5012653;28;20046;-71
2023/09/22 14:21:51;;;;;;;2.63;1.17;;;;;;;;;;5011022;28;20046;-71
2023/09/22 14:24:17;;;;;;;2.13;0.95;;;;;;;;;;5012057;28;20161;-71
2023/09/22 14:26:45;;;;;;;2.35;1.08;;;;;;;;;;5012572;28;20050;-71
2023/09/22 14:29:11;;;;;;;2.60;1.38;;;;;;;;;;5010809;28;20448;-71
2023/09/22 14:31:37;;;;;;;4.90;1.20;;;;;;;;;;5011169;28;20100;-71